EW5261 Weather Reports


time (UTC)temp
F
wind
direction
speed
knots
gust
knots
rain 1hr
in
rain 24hr
in
rain mn
in
humidity
%
barometer
mb
20240418174532 85 251 1.7 5.2 0.00 0.00 0.00 100 1014.8
20240418173324 85 251 0.0 2.6 0.00 0.00 0.00 100 1013.5
20240418173032 84 251 2.6 6.1 0.00 0.00 0.00 100 1014.9
20240418172321 84 251 1.7 6.1 0.00 0.00 0.00 100 1013.8
20240418171535 84 251 2.6 7.0 0.00 0.00 0.00 100 1015.0
20240418171327 84 252 0.9 7.8 0.00 0.00 0.00 100 1013.8
20240418170033 84 251 1.7 8.7 0.00 0.00 0.00 100 1015.2
20240418164530 83 248 1.7 7.0 0.00 0.00 0.00 100 1015.3
20240418164000 84 248 0.0 0.9 0.00 0.00 0.00 100 1014.0
20240418163033 83 248 0.9 6.1 0.00 0.00 0.00 100 1015.4
20240418161534 82 248 2.6 7.0 0.00 0.00 0.00 100 1015.4
20240418160040 82 248 1.7 6.1 0.00 0.00 0.00 100 1015.4
20240418154530 82 248 2.6 7.0 0.00 0.00 0.00 100 1015.4
20240418153037 81 248 0.0 5.2 0.00 0.00 0.00 100 1015.4
20240418151533 80 246 0.9 5.2 0.00 0.00 0.00 100 1015.6
20240418150034 79 0 0.0 4.3 0.00 0.00 0.00 100 1015.7
20240418144530 77 0 0.9 3.5 0.00 0.00 0.00 100 1015.6
20240418143037 76 246 0.9 2.6 0.00 0.00 0.00 100 1015.5
20240418141534 75 246 1.7 4.3 0.00 0.00 0.00 100 1015.3
20240418140034 75 0 0.9 4.3 0.00 0.00 0.00 100 1015.3
20240418134534 75 247 0.0 3.5 0.00 0.00 0.00 100 1015.1
20240418133029 75 246 0.0 3.5 0.00 0.00 0.00 100 1015.1
20240418131538 75 0 0.0 2.6 0.00 0.00 0.00 100 1014.9
20240418130030 74 247 0.0 1.7 0.00 0.00 0.00 100 1014.7
20240418124530 74 0 0.0 0.9 0.00 0.00 0.00 100 1014.6
20240418123029 74 247 0.0 2.6 0.00 0.00 0.00 100 1014.5
20240418121532 74 247 0.0 1.7 0.00 0.00 0.00 100 1014.5
20240418120033 74 247 0.0 1.7 0.00 0.00 0.00 100 1014.5
20240418114532 74 0 0.0 1.7 0.00 0.00 0.00 100 1014.4
20240418113031 74 247 0.9 3.5 0.00 0.00 0.00 100 1014.4
20240418112226 74 247 0.0 0.0 0.00 0.00 0.00 100 1012.9
20240418111553 74 0 0.0 1.7 0.00 0.00 0.00 100 1014.4
20240418111250 74 247 0.0 0.0 0.00 0.00 0.00 100 1012.9
20240418110309 74 246 0.0 0.0 0.00 0.00 0.00 100 1012.9
20240418110046 73 0 0.0 0.9 0.00 0.00 0.00 100 1014.3
20240418105332 74 247 0.0 0.0 0.00 0.00 0.00 100 1012.8
20240418104531 74 0 0.0 0.9 0.00 0.00 0.00 100 1014.1
20240418103039 74 0 0.0 0.9 0.00 0.00 0.00 100 1014.1
20240418101530 74 0 0.0 0.9 0.00 0.00 0.00 100 1014.1
20240418100031 74 0 0.0 1.7 0.00 0.00 0.00 100 1013.8
20240418094535 74 0 0.9 4.3 0.00 0.00 0.00 100 1013.5
20240418093033 74 0 0.9 5.2 0.00 0.00 0.00 100 1013.2
20240418091540 74 246 0.9 5.2 0.00 0.00 0.00 100 1013.4
20240418090041 74 247 0.9 6.1 0.00 0.00 0.00 100 1013.1
20240418084538 74 247 1.7 4.3 0.00 0.00 0.00 100 1013.2
20240418083030 74 247 0.9 2.6 0.00 0.00 0.00 100 1013.4
20240418081545 74 0 0.9 3.5 0.00 0.00 0.00 100 1013.6
20240418080030 74 247 0.9 4.3 0.00 0.00 0.00 100 1013.5
20240418074540 74 0 1.7 3.5 0.00 0.00 0.00 100 1013.4
20240418073048 74 0 0.0 2.6 0.00 0.00 0.00 100 1013.7
20240418071536 74 246 0.9 2.6 0.00 0.00 0.00 100 1013.7
20240418070034 74 246 0.9 1.7 0.00 0.00 0.00 100 1013.7
20240418064541 74 0 0.0 1.7 0.00 0.00 0.00 100 1014.2
20240418063053 74 0 0.0 4.3 0.00 0.00 0.00 100 1014.4
20240418061537 74 247 0.0 3.5 0.00 0.00 0.00 100 1014.2
20240418060034 74 247 0.0 2.6 0.00 0.00 0.00 100 1014.4
20240418054536 74 247 0.0 3.5 0.00 0.00 0.00 100 1014.3
20240418053039 74 247 0.0 6.1 0.00 0.00 0.00 100 1014.9
20240418051540 75 247 0.9 5.2 0.00 0.00 0.00 100 1014.9
20240418050036 75 0 0.0 3.5 0.00 0.00 0.00 100 1015.1
20240418044532 75 247 0.9 4.3 0.00 0.00 0.00 100 1015.3
20240418043028 75 247 0.0 2.6 0.00 0.00 0.00 100 1015.5
20240418041530 75 0 0.0 1.7 0.00 0.00 0.00 100 1015.6
20240418040050 75 247 0.9 3.5 0.00 0.00 0.00 100 1015.6
20240418034529 75 0 0.0 1.7 0.00 0.00 0.00 100 1015.5
20240418033031 75 247 0.0 3.5 0.00 0.00 0.00 100 1015.5
20240418031530 75 0 0.0 3.5 0.00 0.00 0.00 100 1015.4
20240418030035 75 0 0.0 2.6 0.00 0.00 0.00 100 1015.4
20240418025406 75 247 0.0 2.6 0.00 0.00 0.00 100 1013.8
20240418024530 75 246 0.9 3.5 0.00 0.00 0.00 100 1015.2
20240418024405 75 247 0.0 0.9 0.00 0.00 0.00 100 1013.8
20240418023030 75 0 0.9 5.2 0.00 0.00 0.00 100 1015.1
20240418022254 76 247 0.0 3.5 0.00 0.00 0.00 100 1013.7
20240418021531 75 247 0.0 3.5 0.00 0.00 0.00 100 1014.9
20240418020118 76 247 0.0 1.7 0.00 0.00 0.00 100 1013.1
20240418020029 76 247 0.0 4.3 0.00 0.00 0.00 100 1014.5
20240418015116 76 247 0.0 2.6 0.00 0.00 0.00 100 1013.2
20240418014542 76 247 0.9 2.6 0.00 0.00 0.00 100 1014.5
20240418014058 76 247 0.0 2.6 0.00 0.00 0.00 100 1012.9
20240418013114 77 247 0.0 2.6 0.00 0.00 0.00 100 1012.8
20240418013028 76 247 0.9 3.5 0.00 0.00 0.00 100 1014.3
20240418012133 77 247 0.0 0.0 0.00 0.00 0.00 100 1012.8
20240418011540 76 247 0.0 1.7 0.00 0.00 0.00 100 1014.1
20240418011128 77 247 0.0 0.9 0.00 0.00 0.00 100 1012.6
20240418010135 77 247 0.0 1.7 0.00 0.00 0.00 100 1012.5
20240418010033 76 247 0.9 3.5 0.00 0.00 0.00 100 1014.0
20240418004528 77 247 0.9 2.6 0.00 0.00 0.00 100 1013.9
20240418003959 78 246 0.0 4.3 0.00 0.00 0.00 100 1012.2
20240418003031 77 0 0.0 3.5 0.00 0.00 0.00 100 1013.6
20240418002950 78 247 0.0 0.0 0.00 0.00 0.00 100 1012.1
20240418001534 78 0 0.0 2.6 0.00 0.00 0.00 100 1013.4
20240418000030 78 247 1.7 4.3 0.00 0.00 0.00 100 1012.9
20240417234531 79 0 0.0 1.7 0.00 0.00 0.00 100 1013.3
20240417233031 79 247 0.0 4.3 0.00 0.00 0.00 100 1013.1
20240417231533 79 0 0.9 3.5 0.00 0.00 0.00 100 1013.0
20240417230032 79 247 0.0 2.6 0.00 0.00 0.00 100 1013.1
20240417224532 80 0 0.9 4.3 0.00 0.00 0.00 100 1013.2
20240417223034 80 246 0.0 2.6 0.00 0.00 0.00 100 1013.4
20240417221536 80 247 0.0 2.6 0.00 0.00 0.00 100 1013.4
20240417220032 80 247 0.0 3.5 0.00 0.00 0.00 100 1013.7
20240417214542 80 246 0.9 2.6 0.00 0.00 0.00 100 1013.8
20240417213034 80 247 1.7 3.5 0.00 0.00 0.00 100 1014.0
20240417211531 80 247 0.9 5.2 0.00 0.00 0.00 100 1014.3
20240417210038 81 247 1.7 4.3 0.00 0.00 0.00 100 1014.5
20240417204540 81 247 0.0 3.5 0.00 0.00 0.00 100 1014.6
20240417203028 81 247 0.0 5.2 0.00 0.00 0.00 100 1015.1
20240417201534 80 247 0.0 4.3 0.00 0.00 0.00 100 1014.9
20240417200030 80 247 0.9 5.2 0.00 0.00 0.00 100 1014.9
20240417195204 81 247 0.0 4.3 0.00 0.00 0.00 100 1013.7
20240417194539 80 0 0.9 2.6 0.00 0.00 0.00 100 1015.1
20240417194158 81 247 0.0 1.7 0.00 0.00 0.00 100 1013.6
20240417193129 81 246 0.0 4.3 0.00 0.00 0.00 100 1013.9
20240417193034 80 247 0.9 3.5 0.00 0.00 0.00 100 1015.2
20240417191531 80 247 1.7 5.2 0.00 0.00 0.00 100 1015.5
20240417190952 81 247 0.0 6.1 0.00 0.00 0.00 100 1014.2
20240417190031 81 247 0.9 7.0 0.00 0.00 0.00 100 1015.5
20240417190005 82 247 0.9 6.1 0.00 0.00 0.00 100 1014.1
20240417184939 82 247 0.0 3.5 0.00 0.00 0.00 100 1014.1
20240417184539 82 247 0.0 4.3 0.00 0.00 0.00 100 1015.5
20240417183948 82 247 0.0 4.3 0.00 0.00 0.00 100 1014.1
20240417183034 82 247 0.9 4.3 0.00 0.00 0.00 100 1015.2
20240417181822 82 247 0.9 5.2 0.00 0.00 0.00 100 1013.8
20240417181529 81 246 2.6 6.1 0.00 0.00 0.00 100 1015.2
20240417180845 82 247 0.9 4.3 0.00 0.00 0.00 100 1014.0
20240417180049 81 246 1.7 4.3 0.00 0.00 0.00 100 1015.4
20240417175844 81 246 0.0 3.5 0.00 0.00 0.00 100 1014.2
20240417174848 81 247 0.9 5.2 0.00 0.00 0.00 100 1014.3